Dallas, Texas
Traffic Map
Current Weather Conditions
Dallas, Texas
Overcast Freezing Drizzle
Overcast
31°
Feels Like: 23°
Wind Chill: 23° Ceiling: 800
Heat Index: 31° Visibility: 5mi
Dew Point: 28° Wind: 9mph
Humidity: 89% Direction: 70° (ENE)
Pressure: 30.36in Gusts: 0mph
Raw Report DataKDAL 281904Z 07008KT 5SM -FZDZ BR BKN008 BKN014 OVC025 M01/M02 A3036 RMK AO2 P0000 I1000 T10061022
Traffic Incident Summary
Active as of:
Severity:
Category:
InformationThere was an issue retrieving the traffic information for this location. Please try a different location or try again shortly.
Advertisements
Track Severe Weather on mobile